sensor_id;sensor_type;location;lat;lon;timestamp;P1;durP1;ratioP1;P2;durP2;ratioP2
26696;SDS011;14312;52.614;13.496;2022-09-20T00:01:33;3.00;;;1.58;;
26696;SDS011;14312;52.614;13.496;2022-09-20T00:04:20;1.92;;;1.40;;
26696;SDS011;14312;52.614;13.496;2022-09-20T00:07:05;3.28;;;1.60;;
26696;SDS011;14312;52.614;13.496;2022-09-20T00:09:51;2.20;;;1.50;;
26696;SDS011;14312;52.614;13.496;2022-09-20T00:12:37;1.63;;;1.33;;
26696;SDS011;14312;52.614;13.496;2022-09-20T00:15:23;3.38;;;1.73;;
26696;SDS011;14312;52.614;13.496;2022-09-20T00:18:09;2.28;;;1.50;;
26696;SDS011;14312;52.614;13.496;2022-09-20T00:20:55;2.33;;;1.65;;
26696;SDS011;14312;52.614;13.496;2022-09-20T00:23:41;3.13;;;1.60;;
26696;SDS011;14312;52.614;13.496;2022-09-20T00:26:27;1.85;;;1.50;;
26696;SDS011;14312;52.614;13.496;2022-09-20T00:29:13;1.40;;;1.30;;
26696;SDS011;14312;52.614;13.496;2022-09-20T00:31:59;2.60;;;1.98;;
26696;SDS011;14312;52.614;13.496;2022-09-20T00:34:45;1.83;;;1.15;;
26696;SDS011;14312;52.614;13.496;2022-09-20T00:37:49;1.77;;;1.05;;
26696;SDS011;14312;52.614;13.496;2022-09-20T00:40:35;1.33;;;1.13;;
26696;SDS011;14312;52.614;13.496;2022-09-20T00:43:33;2.63;;;1.80;;
26696;SDS011;14312;52.614;13.496;2022-09-20T00:49:29;1.27;;;1.00;;
26696;SDS011;14312;52.614;13.496;2022-09-20T00:52:15;1.50;;;1.10;;
26696;SDS011;14312;52.614;13.496;2022-09-20T00:55:02;1.45;;;0.90;;
26696;SDS011;14312;52.614;13.496;2022-09-20T00:57:53;0.88;;;0.88;;
26696;SDS011;14312;52.614;13.496;2022-09-20T01:00:39;1.13;;;0.85;;
26696;SDS011;14312;52.614;13.496;2022-09-20T01:03:28;1.35;;;0.80;;
26696;SDS011;14312;52.614;13.496;2022-09-20T01:06:15;0.80;;;0.80;;
26696;SDS011;14312;52.614;13.496;2022-09-20T01:09:02;1.02;;;0.80;;
26696;SDS011;14312;52.614;13.496;2022-09-20T01:11:49;1.15;;;1.00;;
26696;SDS011;14312;52.614;13.496;2022-09-20T01:14:40;0.88;;;0.88;;
26696;SDS011;14312;52.614;13.496;2022-09-20T01:17:28;1.10;;;1.00;;
26696;SDS011;14312;52.614;13.496;2022-09-20T01:20:19;0.98;;;0.90;;
26696;SDS011;14312;52.614;13.496;2022-09-20T01:26:33;1.13;;;0.90;;
26696;SDS011;14312;52.614;13.496;2022-09-20T01:29:34;1.20;;;1.00;;
26696;SDS011;14312;52.614;13.496;2022-09-20T01:32:35;1.20;;;1.10;;
26696;SDS011;14312;52.614;13.496;2022-09-20T01:35:39;3.13;;;1.00;;
26696;SDS011;14312;52.614;13.496;2022-09-20T01:38:33;0.90;;;0.90;;
26696;SDS011;14312;52.614;13.496;2022-09-20T02:00:10;1.45;;;1.05;;
26696;SDS011;14312;52.614;13.496;2022-09-20T02:06:51;1.42;;;1.00;;
26696;SDS011;14312;52.614;13.496;2022-09-20T02:13:00;2.97;;;1.10;;
26696;SDS011;14312;52.614;13.496;2022-09-20T02:22:34;1.20;;;0.90;;
26696;SDS011;14312;52.614;13.496;2022-09-20T02:28:51;1.10;;;1.00;;
26696;SDS011;14312;52.614;13.496;2022-09-20T02:31:56;0.98;;;0.85;;
26696;SDS011;14312;52.614;13.496;2022-09-20T02:34:45;1.02;;;0.88;;
26696;SDS011;14312;52.614;13.496;2022-09-20T02:38:00;0.90;;;0.70;;
26696;SDS011;14312;52.614;13.496;2022-09-20T02:44:32;1.00;;;1.00;;
26696;SDS011;14312;52.614;13.496;2022-09-20T02:47:53;1.08;;;0.90;;
26696;SDS011;14312;52.614;13.496;2022-09-20T02:50:45;1.40;;;0.93;;
26696;SDS011;14312;52.614;13.496;2022-09-20T02:53:44;0.75;;;0.70;;
26696;SDS011;14312;52.614;13.496;2022-09-20T03:02:59;1.08;;;0.88;;
26696;SDS011;14312;52.614;13.496;2022-09-20T03:06:07;1.00;;;0.75;;
26696;SDS011;14312;52.614;13.496;2022-09-20T03:15:42;1.35;;;0.80;;
26696;SDS011;14312;52.614;13.496;2022-09-20T03:18:42;1.00;;;0.88;;
26696;SDS011;14312;52.614;13.496;2022-09-20T03:21:39;0.82;;;0.82;;
26696;SDS011;14312;52.614;13.496;2022-09-20T03:24:35;1.00;;;0.90;;
26696;SDS011;14312;52.614;13.496;2022-09-20T03:27:41;1.08;;;0.82;;
26696;SDS011;14312;52.614;13.496;2022-09-20T03:34:12;0.85;;;0.85;;
26696;SDS011;14312;52.614;13.496;2022-09-20T03:43:23;0.80;;;0.80;;
26696;SDS011;14312;52.614;13.496;2022-09-20T03:46:26;1.08;;;0.98;;
26696;SDS011;14312;52.614;13.496;2022-09-20T03:49:26;1.15;;;1.00;;
26696;SDS011;14312;52.614;13.496;2022-09-20T03:52:19;0.82;;;0.82;;
26696;SDS011;14312;52.614;13.496;2022-09-20T03:58:53;1.17;;;0.98;;
26696;SDS011;14312;52.614;13.496;2022-09-20T04:01:56;1.80;;;1.17;;
26696;SDS011;14312;52.614;13.496;2022-09-20T04:04:49;2.05;;;1.20;;
26696;SDS011;14312;52.614;13.496;2022-09-20T04:18:11;1.48;;;1.10;;
26696;SDS011;14312;52.614;13.496;2022-09-20T04:23:54;1.23;;;1.13;;
26696;SDS011;14312;52.614;13.496;2022-09-20T04:26:46;1.23;;;1.05;;
26696;SDS011;14312;52.614;13.496;2022-09-20T04:29:41;0.90;;;0.90;;
26696;SDS011;14312;52.614;13.496;2022-09-20T04:32:43;1.20;;;1.10;;
26696;SDS011;14312;52.614;13.496;2022-09-20T04:36:17;1.20;;;1.10;;
26696;SDS011;14312;52.614;13.496;2022-09-20T04:39:24;1.17;;;1.08;;
26696;SDS011;14312;52.614;13.496;2022-09-20T04:52:13;1.88;;;0.90;;
26696;SDS011;14312;52.614;13.496;2022-09-20T05:01:56;1.75;;;0.90;;
26696;SDS011;14312;52.614;13.496;2022-09-20T05:05:01;1.17;;;1.08;;
26696;SDS011;14312;52.614;13.496;2022-09-20T05:21:11;1.17;;;1.08;;
26696;SDS011;14312;52.614;13.496;2022-09-20T05:27:46;1.35;;;1.10;;
26696;SDS011;14312;52.614;13.496;2022-09-20T05:34:02;0.98;;;0.90;;
26696;SDS011;14312;52.614;13.496;2022-09-20T05:36:57;1.08;;;0.90;;
26696;SDS011;14312;52.614;13.496;2022-09-20T05:39:58;1.20;;;1.08;;
26696;SDS011;14312;52.614;13.496;2022-09-20T05:42:52;1.40;;;1.30;;
26696;SDS011;14312;52.614;13.496;2022-09-20T05:48:45;1.27;;;1.10;;
26696;SDS011;14312;52.614;13.496;2022-09-20T05:52:04;1.23;;;1.13;;
26696;SDS011;14312;52.614;13.496;2022-09-20T05:57:44;1.23;;;1.10;;
26696;SDS011;14312;52.614;13.496;2022-09-20T06:00:47;1.90;;;1.10;;
26696;SDS011;14312;52.614;13.496;2022-09-20T06:03:41;2.00;;;1.20;;
26696;SDS011;14312;52.614;13.496;2022-09-20T06:06:38;1.20;;;1.10;;
26696;SDS011;14312;52.614;13.496;2022-09-20T06:12:44;1.23;;;1.13;;
26696;SDS011;14312;52.614;13.496;2022-09-20T06:16:01;0.90;;;0.90;;
26696;SDS011;14312;52.614;13.496;2022-09-20T06:18:56;1.00;;;1.00;;
26696;SDS011;14312;52.614;13.496;2022-09-20T06:21:51;1.30;;;1.00;;
26696;SDS011;14312;52.614;13.496;2022-09-20T06:24:42;1.40;;;1.00;;
26696;SDS011;14312;52.614;13.496;2022-09-20T06:27:54;1.75;;;1.38;;
26696;SDS011;14312;52.614;13.496;2022-09-20T06:30:48;2.15;;;1.17;;
26696;SDS011;14312;52.614;13.496;2022-09-20T06:33:39;1.33;;;1.00;;
26696;SDS011;14312;52.614;13.496;2022-09-20T06:36:49;1.33;;;1.23;;
26696;SDS011;14312;52.614;13.496;2022-09-20T06:40:41;1.33;;;1.23;;
26696;SDS011;14312;52.614;13.496;2022-09-20T06:43:26;1.70;;;1.35;;
26696;SDS011;14312;52.614;13.496;2022-09-20T06:46:15;1.50;;;1.38;;
26696;SDS011;14312;52.614;13.496;2022-09-20T06:49:02;3.03;;;1.30;;
26696;SDS011;14312;52.614;13.496;2022-09-20T06:51:48;3.42;;;1.42;;
26696;SDS011;14312;52.614;13.496;2022-09-20T06:54:35;1.95;;;1.42;;
26696;SDS011;14312;52.614;13.496;2022-09-20T06:57:40;2.35;;;1.52;;
26696;SDS011;14312;52.614;13.496;2022-09-20T07:00:26;3.08;;;1.40;;
26696;SDS011;14312;52.614;13.496;2022-09-20T07:03:12;1.85;;;1.58;;
26696;SDS011;14312;52.614;13.496;2022-09-20T07:06:01;1.88;;;1.67;;
26696;SDS011;14312;52.614;13.496;2022-09-20T07:08:48;2.42;;;1.67;;
26696;SDS011;14312;52.614;13.496;2022-09-20T07:11:34;2.63;;;1.58;;
26696;SDS011;14312;52.614;13.496;2022-09-20T07:14:21;1.60;;;1.50;;
26696;SDS011;14312;52.614;13.496;2022-09-20T07:17:07;1.70;;;1.50;;
26696;SDS011;14312;52.614;13.496;2022-09-20T07:19:53;1.77;;;1.30;;
26696;SDS011;14312;52.614;13.496;2022-09-20T07:22:41;1.40;;;1.30;;
26696;SDS011;14312;52.614;13.496;2022-09-20T07:25:26;1.40;;;1.20;;
26696;SDS011;14312;52.614;13.496;2022-09-20T07:28:12;1.40;;;1.20;;
26696;SDS011;14312;52.614;13.496;2022-09-20T07:30:59;1.63;;;1.35;;
26696;SDS011;14312;52.614;13.496;2022-09-20T07:33:45;2.03;;;1.23;;
26696;SDS011;14312;52.614;13.496;2022-09-20T07:36:31;1.55;;;1.23;;
26696;SDS011;14312;52.614;13.496;2022-09-20T07:39:17;1.50;;;1.40;;
26696;SDS011;14312;52.614;13.496;2022-09-20T07:42:03;2.58;;;1.58;;
26696;SDS011;14312;52.614;13.496;2022-09-20T07:44:51;2.03;;;1.40;;
26696;SDS011;14312;52.614;13.496;2022-09-20T07:47:37;1.58;;;1.42;;
26696;SDS011;14312;52.614;13.496;2022-09-20T07:50:25;1.92;;;1.67;;
26696;SDS011;14312;52.614;13.496;2022-09-20T07:53:11;1.35;;;1.20;;
26696;SDS011;14312;52.614;13.496;2022-09-20T07:56:04;1.67;;;1.35;;
26696;SDS011;14312;52.614;13.496;2022-09-20T07:58:50;1.48;;;1.27;;
26696;SDS011;14312;52.614;13.496;2022-09-20T08:01:36;1.80;;;1.45;;
26696;SDS011;14312;52.614;13.496;2022-09-20T08:04:22;1.75;;;1.35;;
26696;SDS011;14312;52.614;13.496;2022-09-20T08:07:08;1.30;;;1.20;;
26696;SDS011;14312;52.614;13.496;2022-09-20T08:09:57;2.20;;;1.42;;
26696;SDS011;14312;52.614;13.496;2022-09-20T08:12:45;1.20;;;1.10;;
26696;SDS011;14312;52.614;13.496;2022-09-20T08:15:33;1.50;;;1.20;;
26696;SDS011;14312;52.614;13.496;2022-09-20T08:18:19;2.40;;;1.50;;
26696;SDS011;14312;52.614;13.496;2022-09-20T08:21:06;1.50;;;1.20;;
26696;SDS011;14312;52.614;13.496;2022-09-20T08:23:54;1.45;;;1.10;;
26696;SDS011;14312;52.614;13.496;2022-09-20T08:26:40;1.75;;;1.30;;
26696;SDS011;14312;52.614;13.496;2022-09-20T08:29:26;1.27;;;1.13;;
26696;SDS011;14312;52.614;13.496;2022-09-20T08:32:12;1.98;;;1.10;;
26696;SDS011;14312;52.614;13.496;2022-09-20T08:34:58;1.30;;;1.05;;
26696;SDS011;14312;52.614;13.496;2022-09-20T08:37:43;0.98;;;0.80;;
26696;SDS011;14312;52.614;13.496;2022-09-20T08:40:30;1.77;;;1.00;;
26696;SDS011;14312;52.614;13.496;2022-09-20T08:43:16;1.95;;;1.15;;
26696;SDS011;14312;52.614;13.496;2022-09-20T08:46:02;1.15;;;1.02;;
26696;SDS011;14312;52.614;13.496;2022-09-20T08:48:50;1.13;;;1.02;;
26696;SDS011;14312;52.614;13.496;2022-09-20T08:51:37;1.95;;;0.90;;
26696;SDS011;14312;52.614;13.496;2022-09-20T08:54:26;1.00;;;0.90;;
26696;SDS011;14312;52.614;13.496;2022-09-20T08:57:16;1.00;;;0.90;;
26696;SDS011;14312;52.614;13.496;2022-09-20T09:00:05;1.02;;;0.95;;
26696;SDS011;14312;52.614;13.496;2022-09-20T09:02:55;1.60;;;1.00;;
26696;SDS011;14312;52.614;13.496;2022-09-20T09:05:44;1.00;;;0.90;;
26696;SDS011;14312;52.614;13.496;2022-09-20T09:08:34;2.17;;;1.27;;
26696;SDS011;14312;52.614;13.496;2022-09-20T09:11:22;1.27;;;1.17;;
26696;SDS011;14312;52.614;13.496;2022-09-20T09:17:41;0.70;;;0.70;;
26696;SDS011;14312;52.614;13.496;2022-09-20T09:20:27;3.08;;;0.82;;
26696;SDS011;14312;52.614;13.496;2022-09-20T09:23:25;1.15;;;0.68;;
26696;SDS011;14312;52.614;13.496;2022-09-20T09:26:22;0.80;;;0.80;;
26696;SDS011;14312;52.614;13.496;2022-09-20T09:29:16;0.88;;;0.75;;
26696;SDS011;14312;52.614;13.496;2022-09-20T09:32:39;0.70;;;0.63;;
26696;SDS011;14312;52.614;13.496;2022-09-20T09:35:24;0.68;;;0.68;;
26696;SDS011;14312;52.614;13.496;2022-09-20T09:38:17;0.55;;;0.55;;
26696;SDS011;14312;52.614;13.496;2022-09-20T09:44:20;1.02;;;0.63;;
26696;SDS011;14312;52.614;13.496;2022-09-20T09:47:14;0.55;;;0.55;;
26696;SDS011;14312;52.614;13.496;2022-09-20T09:50:20;0.60;;;0.60;;
26696;SDS011;14312;52.614;13.496;2022-09-20T09:53:24;0.75;;;0.70;;
26696;SDS011;14312;52.614;13.496;2022-09-20T09:56:19;0.65;;;0.65;;
26696;SDS011;14312;52.614;13.496;2022-09-20T10:08:41;1.02;;;0.70;;
26696;SDS011;14312;52.614;13.496;2022-09-20T10:11:56;0.75;;;0.60;;
26696;SDS011;14312;52.614;13.496;2022-09-20T10:15:08;1.10;;;0.80;;
26696;SDS011;14312;52.614;13.496;2022-09-20T10:21:11;1.48;;;0.70;;
26696;SDS011;14312;52.614;13.496;2022-09-20T10:24:11;1.85;;;0.95;;
26696;SDS011;14312;52.614;13.496;2022-09-20T10:27:13;1.10;;;0.80;;
26696;SDS011;14312;52.614;13.496;2022-09-20T10:30:11;0.70;;;0.70;;
26696;SDS011;14312;52.614;13.496;2022-09-20T10:39:37;0.90;;;0.85;;
26696;SDS011;14312;52.614;13.496;2022-09-20T10:45:52;0.85;;;0.60;;
26696;SDS011;14312;52.614;13.496;2022-09-20T10:48:51;0.50;;;0.50;;
26696;SDS011;14312;52.614;13.496;2022-09-20T10:51:53;0.50;;;0.50;;
26696;SDS011;14312;52.614;13.496;2022-09-20T11:01:49;1.40;;;0.57;;
26696;SDS011;14312;52.614;13.496;2022-09-20T11:05:03;0.55;;;0.40;;
26696;SDS011;14312;52.614;13.496;2022-09-20T11:08:14;0.50;;;0.50;;
26696;SDS011;14312;52.614;13.496;2022-09-20T11:14:05;0.38;;;0.38;;
26696;SDS011;14312;52.614;13.496;2022-09-20T11:16:59;0.32;;;0.32;;
26696;SDS011;14312;52.614;13.496;2022-09-20T11:23:09;0.55;;;0.50;;
26696;SDS011;14312;52.614;13.496;2022-09-20T11:26:06;0.43;;;0.43;;
26696;SDS011;14312;52.614;13.496;2022-09-20T11:29:00;0.50;;;0.50;;
26696;SDS011;14312;52.614;13.496;2022-09-20T11:31:49;0.40;;;0.40;;
26696;SDS011;14312;52.614;13.496;2022-09-20T11:34:50;0.60;;;0.60;;
26696;SDS011;14312;52.614;13.496;2022-09-20T11:37:47;0.50;;;0.50;;
26696;SDS011;14312;52.614;13.496;2022-09-20T11:43:42;0.50;;;0.50;;
26696;SDS011;14312;52.614;13.496;2022-09-20T11:46:32;2.05;;;0.80;;
26696;SDS011;14312;52.614;13.496;2022-09-20T11:49:52;1.17;;;0.70;;
26696;SDS011;14312;52.614;13.496;2022-09-20T11:52:59;0.77;;;0.77;;
26696;SDS011;14312;52.614;13.496;2022-09-20T11:59:05;1.10;;;0.90;;
26696;SDS011;14312;52.614;13.496;2022-09-20T12:02:17;1.25;;;0.80;;
26696;SDS011;14312;52.614;13.496;2022-09-20T12:05:22;0.88;;;0.82;;
26696;SDS011;14312;52.614;13.496;2022-09-20T12:08:20;0.80;;;0.80;;
26696;SDS011;14312;52.614;13.496;2022-09-20T12:11:11;1.50;;;1.10;;
26696;SDS011;14312;52.614;13.496;2022-09-20T12:14:03;0.90;;;0.90;;
26696;SDS011;14312;52.614;13.496;2022-09-20T12:16:52;1.13;;;1.02;;
26696;SDS011;14312;52.614;13.496;2022-09-20T12:19:38;1.38;;;1.27;;
26696;SDS011;14312;52.614;13.496;2022-09-20T12:22:25;1.45;;;1.17;;
26696;SDS011;14312;52.614;13.496;2022-09-20T12:25:32;1.50;;;1.40;;
26696;SDS011;14312;52.614;13.496;2022-09-20T12:28:21;1.80;;;1.20;;
26696;SDS011;14312;52.614;13.496;2022-09-20T12:39:49;1.33;;;0.80;;
26696;SDS011;14312;52.614;13.496;2022-09-20T12:42:37;0.73;;;0.70;;
26696;SDS011;14312;52.614;13.496;2022-09-20T12:45:24;0.70;;;0.70;;
26696;SDS011;14312;52.614;13.496;2022-09-20T12:48:14;0.70;;;0.70;;
26696;SDS011;14312;52.614;13.496;2022-09-20T12:54:29;0.60;;;0.60;;
26696;SDS011;14312;52.614;13.496;2022-09-20T12:57:17;0.80;;;0.80;;
26696;SDS011;14312;52.614;13.496;2022-09-20T13:00:26;0.80;;;0.80;;
26696;SDS011;14312;52.614;13.496;2022-09-20T13:09:04;1.15;;;0.70;;
26696;SDS011;14312;52.614;13.496;2022-09-20T13:11:53;1.27;;;0.70;;
26696;SDS011;14312;52.614;13.496;2022-09-20T13:14:41;0.63;;;0.60;;
26696;SDS011;14312;52.614;13.496;2022-09-20T13:17:28;0.40;;;0.40;;
26696;SDS011;14312;52.614;13.496;2022-09-20T13:20:18;0.52;;;0.52;;
26696;SDS011;14312;52.614;13.496;2022-09-20T13:23:06;0.50;;;0.43;;
26696;SDS011;14312;52.614;13.496;2022-09-20T13:26:04;0.50;;;0.50;;
26696;SDS011;14312;52.614;13.496;2022-09-20T13:28:54;0.60;;;0.60;;
26696;SDS011;14312;52.614;13.496;2022-09-20T13:31:41;1.33;;;0.60;;
26696;SDS011;14312;52.614;13.496;2022-09-20T13:34:27;0.98;;;0.60;;
26696;SDS011;14312;52.614;13.496;2022-09-20T13:37:17;0.65;;;0.60;;
26696;SDS011;14312;52.614;13.496;2022-09-20T13:40:14;0.52;;;0.52;;
26696;SDS011;14312;52.614;13.496;2022-09-20T13:43:15;0.60;;;0.60;;
26696;SDS011;14312;52.614;13.496;2022-09-20T13:46:16;0.50;;;0.50;;
26696;SDS011;14312;52.614;13.496;2022-09-20T13:49:14;0.60;;;0.60;;
26696;SDS011;14312;52.614;13.496;2022-09-20T13:52:21;0.65;;;0.50;;
26696;SDS011;14312;52.614;13.496;2022-09-20T13:55:45;0.60;;;0.60;;
26696;SDS011;14312;52.614;13.496;2022-09-20T13:58:29;0.60;;;0.60;;
26696;SDS011;14312;52.614;13.496;2022-09-20T14:01:22;0.70;;;0.70;;
26696;SDS011;14312;52.614;13.496;2022-09-20T14:04:22;0.95;;;0.73;;
26696;SDS011;14312;52.614;13.496;2022-09-20T14:07:11;0.70;;;0.70;;
26696;SDS011;14312;52.614;13.496;2022-09-20T14:09:59;0.70;;;0.70;;
26696;SDS011;14312;52.614;13.496;2022-09-20T14:12:45;0.50;;;0.50;;
26696;SDS011;14312;52.614;13.496;2022-09-20T14:15:35;0.60;;;0.60;;
26696;SDS011;14312;52.614;13.496;2022-09-20T14:18:22;1.58;;;0.60;;
26696;SDS011;14312;52.614;13.496;2022-09-20T14:21:09;1.48;;;0.80;;
26696;SDS011;14312;52.614;13.496;2022-09-20T14:23:57;0.70;;;0.70;;
26696;SDS011;14312;52.614;13.496;2022-09-20T14:29:57;0.50;;;0.50;;
26696;SDS011;14312;52.614;13.496;2022-09-20T14:32:44;1.00;;;0.70;;
26696;SDS011;14312;52.614;13.496;2022-09-20T14:35:38;0.70;;;0.70;;
26696;SDS011;14312;52.614;13.496;2022-09-20T14:38:32;1.05;;;0.60;;
26696;SDS011;14312;52.614;13.496;2022-09-20T14:41:26;0.90;;;0.60;;
26696;SDS011;14312;52.614;13.496;2022-09-20T14:44:21;0.60;;;0.60;;
26696;SDS011;14312;52.614;13.496;2022-09-20T14:47:13;0.88;;;0.52;;
26696;SDS011;14312;52.614;13.496;2022-09-20T14:49:59;0.70;;;0.70;;
26696;SDS011;14312;52.614;13.496;2022-09-20T14:52:46;0.57;;;0.57;;
26696;SDS011;14312;52.614;13.496;2022-09-20T14:59:01;0.60;;;0.60;;
26696;SDS011;14312;52.614;13.496;2022-09-20T15:04:54;0.43;;;0.43;;
26696;SDS011;14312;52.614;13.496;2022-09-20T15:07:44;1.48;;;0.60;;
26696;SDS011;14312;52.614;13.496;2022-09-20T15:10:31;0.57;;;0.57;;
26696;SDS011;14312;52.614;13.496;2022-09-20T15:13:17;0.40;;;0.40;;
26696;SDS011;14312;52.614;13.496;2022-09-20T15:16:03;0.30;;;0.30;;
26696;SDS011;14312;52.614;13.496;2022-09-20T15:18:49;2.40;;;0.55;;
26696;SDS011;14312;52.614;13.496;2022-09-20T15:21:35;0.43;;;0.43;;
26696;SDS011;14312;52.614;13.496;2022-09-20T15:24:20;0.77;;;0.40;;
26696;SDS011;14312;52.614;13.496;2022-09-20T15:27:06;0.63;;;0.63;;
26696;SDS011;14312;52.614;13.496;2022-09-20T15:29:52;0.50;;;0.50;;
26696;SDS011;14312;52.614;13.496;2022-09-20T15:32:38;0.55;;;0.55;;
26696;SDS011;14312;52.614;13.496;2022-09-20T15:35:24;0.80;;;0.80;;
26696;SDS011;14312;52.614;13.496;2022-09-20T15:38:10;1.40;;;1.30;;
26696;SDS011;14312;52.614;13.496;2022-09-20T15:40:58;1.75;;;1.65;;
26696;SDS011;14312;52.614;13.496;2022-09-20T15:43:46;3.22;;;2.10;;
26696;SDS011;14312;52.614;13.496;2022-09-20T15:46:33;2.05;;;1.85;;
26696;SDS011;14312;52.614;13.496;2022-09-20T15:49:19;1.60;;;1.50;;
26696;SDS011;14312;52.614;13.496;2022-09-20T15:52:06;1.83;;;1.30;;
26696;SDS011;14312;52.614;13.496;2022-09-20T15:54:52;1.25;;;0.90;;
26696;SDS011;14312;52.614;13.496;2022-09-20T15:57:38;0.80;;;0.80;;
26696;SDS011;14312;52.614;13.496;2022-09-20T16:00:26;1.15;;;0.70;;
26696;SDS011;14312;52.614;13.496;2022-09-20T16:03:12;1.17;;;0.70;;
26696;SDS011;14312;52.614;13.496;2022-09-20T16:06:01;1.05;;;0.80;;
26696;SDS011;14312;52.614;13.496;2022-09-20T16:08:49;0.60;;;0.60;;
26696;SDS011;14312;52.614;13.496;2022-09-20T16:11:35;0.93;;;0.80;;
26696;SDS011;14312;52.614;13.496;2022-09-20T16:14:23;0.80;;;0.80;;
26696;SDS011;14312;52.614;13.496;2022-09-20T16:17:09;0.82;;;0.82;;
26696;SDS011;14312;52.614;13.496;2022-09-20T16:19:55;0.90;;;0.90;;
26696;SDS011;14312;52.614;13.496;2022-09-20T16:22:40;0.75;;;0.70;;
26696;SDS011;14312;52.614;13.496;2022-09-20T16:25:26;0.80;;;0.80;;
26696;SDS011;14312;52.614;13.496;2022-09-20T16:28:12;1.05;;;0.95;;
26696;SDS011;14312;52.614;13.496;2022-09-20T16:30:58;0.80;;;0.80;;
26696;SDS011;14312;52.614;13.496;2022-09-20T16:33:44;1.10;;;0.90;;
26696;SDS011;14312;52.614;13.496;2022-09-20T16:36:31;0.90;;;0.90;;
26696;SDS011;14312;52.614;13.496;2022-09-20T16:39:17;1.05;;;1.02;;
26696;SDS011;14312;52.614;13.496;2022-09-20T16:42:04;1.67;;;1.15;;
26696;SDS011;14312;52.614;13.496;2022-09-20T16:44:51;1.00;;;1.00;;
26696;SDS011;14312;52.614;13.496;2022-09-20T16:47:37;1.00;;;1.00;;
26696;SDS011;14312;52.614;13.496;2022-09-20T16:50:25;1.17;;;1.08;;
26696;SDS011;14312;52.614;13.496;2022-09-20T16:53:11;1.27;;;1.00;;
26696;SDS011;14312;52.614;13.496;2022-09-20T16:55:57;1.13;;;0.80;;
26696;SDS011;14312;52.614;13.496;2022-09-20T16:58:43;1.50;;;1.00;;
26696;SDS011;14312;52.614;13.496;2022-09-20T17:01:30;1.70;;;0.93;;
26696;SDS011;14312;52.614;13.496;2022-09-20T17:04:17;0.80;;;0.80;;
26696;SDS011;14312;52.614;13.496;2022-09-20T17:07:04;1.00;;;0.85;;
26696;SDS011;14312;52.614;13.496;2022-09-20T17:09:50;0.80;;;0.80;;
26696;SDS011;14312;52.614;13.496;2022-09-20T17:12:36;0.85;;;0.82;;
26696;SDS011;14312;52.614;13.496;2022-09-20T17:15:26;1.00;;;1.00;;
26696;SDS011;14312;52.614;13.496;2022-09-20T17:18:12;1.08;;;0.98;;
26696;SDS011;14312;52.614;13.496;2022-09-20T17:21:02;1.25;;;0.95;;
26696;SDS011;14312;52.614;13.496;2022-09-20T17:23:50;1.05;;;0.98;;
26696;SDS011;14312;52.614;13.496;2022-09-20T17:26:40;1.63;;;1.10;;
26696;SDS011;14312;52.614;13.496;2022-09-20T17:29:29;1.08;;;0.98;;
26696;SDS011;14312;52.614;13.496;2022-09-20T17:32:14;1.30;;;1.20;;
26696;SDS011;14312;52.614;13.496;2022-09-20T17:35:00;1.92;;;1.50;;
26696;SDS011;14312;52.614;13.496;2022-09-20T17:37:46;1.60;;;1.50;;
26696;SDS011;14312;52.614;13.496;2022-09-20T17:40:35;1.77;;;1.48;;
26696;SDS011;14312;52.614;13.496;2022-09-20T17:43:20;1.48;;;1.38;;
26696;SDS011;14312;52.614;13.496;2022-09-20T17:46:08;1.73;;;1.63;;
26696;SDS011;14312;52.614;13.496;2022-09-20T17:48:57;1.55;;;1.45;;
26696;SDS011;14312;52.614;13.496;2022-09-20T17:51:52;1.48;;;1.38;;
26696;SDS011;14312;52.614;13.496;2022-09-20T17:54:39;1.42;;;1.33;;
26696;SDS011;14312;52.614;13.496;2022-09-20T17:57:25;1.88;;;1.58;;
26696;SDS011;14312;52.614;13.496;2022-09-20T18:00:11;1.90;;;1.45;;
26696;SDS011;14312;52.614;13.496;2022-09-20T18:02:57;1.60;;;1.40;;
26696;SDS011;14312;52.614;13.496;2022-09-20T18:05:43;1.55;;;1.45;;
26696;SDS011;14312;52.614;13.496;2022-09-20T18:08:29;2.10;;;1.75;;
26696;SDS011;14312;52.614;13.496;2022-09-20T18:11:15;2.08;;;1.83;;
26696;SDS011;14312;52.614;13.496;2022-09-20T18:14:03;2.75;;;2.25;;
26696;SDS011;14312;52.614;13.496;2022-09-20T18:16:50;3.80;;;2.38;;
26696;SDS011;14312;52.614;13.496;2022-09-20T18:19:37;2.83;;;2.63;;
26696;SDS011;14312;52.614;13.496;2022-09-20T18:22:25;3.45;;;2.95;;
26696;SDS011;14312;52.614;13.496;2022-09-20T18:25:11;2.85;;;2.55;;
26696;SDS011;14312;52.614;13.496;2022-09-20T18:27:57;3.33;;;2.70;;
26696;SDS011;14312;52.614;13.496;2022-09-20T18:30:43;2.30;;;2.10;;
26696;SDS011;14312;52.614;13.496;2022-09-20T18:33:30;2.50;;;2.30;;
26696;SDS011;14312;52.614;13.496;2022-09-20T18:36:16;2.53;;;2.33;;
26696;SDS011;14312;52.614;13.496;2022-09-20T18:39:02;2.20;;;2.00;;
26696;SDS011;14312;52.614;13.496;2022-09-20T18:41:48;2.10;;;1.90;;
26696;SDS011;14312;52.614;13.496;2022-09-20T18:44:34;2.05;;;1.85;;
26696;SDS011;14312;52.614;13.496;2022-09-20T18:47:20;2.00;;;1.88;;
26696;SDS011;14312;52.614;13.496;2022-09-20T18:50:07;2.22;;;1.77;;
26696;SDS011;14312;52.614;13.496;2022-09-20T18:52:54;1.60;;;1.50;;
26696;SDS011;14312;52.614;13.496;2022-09-20T18:55:43;2.75;;;1.67;;
26696;SDS011;14312;52.614;13.496;2022-09-20T18:58:29;1.58;;;1.48;;
26696;SDS011;14312;52.614;13.496;2022-09-20T19:11:16;1.10;;;1.00;;
26696;SDS011;14312;52.614;13.496;2022-09-20T19:14:36;1.10;;;0.93;;
26696;SDS011;14312;52.614;13.496;2022-09-20T19:17:48;1.42;;;1.08;;
26696;SDS011;14312;52.614;13.496;2022-09-20T19:24:18;1.38;;;1.27;;
26696;SDS011;14312;52.614;13.496;2022-09-20T19:27:09;1.00;;;1.00;;
26696;SDS011;14312;52.614;13.496;2022-09-20T19:29:56;1.20;;;1.10;;
26696;SDS011;14312;52.614;13.496;2022-09-20T19:32:42;1.40;;;1.30;;
26696;SDS011;14312;52.614;13.496;2022-09-20T19:35:31;1.90;;;0.98;;
26696;SDS011;14312;52.614;13.496;2022-09-20T19:41:32;1.20;;;1.10;;
26696;SDS011;14312;52.614;13.496;2022-09-20T19:44:38;1.50;;;1.15;;
26696;SDS011;14312;52.614;13.496;2022-09-20T19:47:46;0.90;;;0.90;;
26696;SDS011;14312;52.614;13.496;2022-09-20T19:50:52;1.52;;;1.27;;
26696;SDS011;14312;52.614;13.496;2022-09-20T19:53:39;1.20;;;1.10;;
26696;SDS011;14312;52.614;13.496;2022-09-20T19:56:26;1.40;;;1.30;;
26696;SDS011;14312;52.614;13.496;2022-09-20T19:59:13;1.20;;;1.10;;
26696;SDS011;14312;52.614;13.496;2022-09-20T20:02:01;1.20;;;1.10;;
26696;SDS011;14312;52.614;13.496;2022-09-20T20:04:47;1.30;;;1.20;;
26696;SDS011;14312;52.614;13.496;2022-09-20T20:07:54;1.60;;;1.27;;
26696;SDS011;14312;52.614;13.496;2022-09-20T20:20:17;1.50;;;1.40;;
26696;SDS011;14312;52.614;13.496;2022-09-20T20:26:21;1.52;;;1.40;;
26696;SDS011;14312;52.614;13.496;2022-09-20T20:29:08;1.92;;;1.60;;
26696;SDS011;14312;52.614;13.496;2022-09-20T20:31:54;2.20;;;1.70;;
26696;SDS011;14312;52.614;13.496;2022-09-20T20:34:40;1.52;;;1.38;;
26696;SDS011;14312;52.614;13.496;2022-09-20T20:37:26;1.50;;;1.27;;
26696;SDS011;14312;52.614;13.496;2022-09-20T20:40:12;1.85;;;1.75;;
26696;SDS011;14312;52.614;13.496;2022-09-20T20:42:59;2.25;;;2.05;;
26696;SDS011;14312;52.614;13.496;2022-09-20T20:45:49;2.20;;;2.00;;
26696;SDS011;14312;52.614;13.496;2022-09-20T20:48:35;1.90;;;1.65;;
26696;SDS011;14312;52.614;13.496;2022-09-20T20:51:21;1.92;;;1.60;;
26696;SDS011;14312;52.614;13.496;2022-09-20T20:54:07;2.00;;;1.77;;
26696;SDS011;14312;52.614;13.496;2022-09-20T20:56:54;2.83;;;1.90;;